Time;durP1;ratioP1;P1;durP2;ratioP2;P2;SDS_P1;SDS_P2;PMS_P1;PMS_P2;Temp;Humidity;BMP_temperature;BMP_pressure;BME280_temperature;BME280_humidity;BME280_pressure;Samples;Min_cycle;Max_cycle;Signal;HPM_P1;HPM_P2
2020/12/03 05:20:57;;;;;;;0.50;0.50;;;;;;;-1.34;87.17;99030.84;6289765;22;20189;-83
2020/12/03 05:23:37;;;;;;;0.40;0.40;;;;;;;-1.34;87.71;99028.19;6264757;22;20150;-84
2020/12/03 05:26:24;;;;;;;0.40;0.40;;;;;;;-1.24;87.28;99045.66;6259318;22;20150;-83
2020/12/03 05:29:13;;;;;;;0.50;0.50;;;;;;;-1.25;87.76;99039.56;6336921;22;20127;-84
2020/12/03 05:31:58;;;;;;;0.47;0.47;;;;;;;-1.38;87.70;99011.09;6311756;22;20181;-84
2020/12/03 05:34:39;;;;;;;0.30;0.30;;;;;;;-1.39;87.87;99014.72;6334816;22;20165;-84
2020/12/03 05:37:54;;;;;;;0.40;0.40;;;;;;;-1.34;87.54;99024.75;6336966;22;20165;-83
2020/12/03 05:41:08;;;;;;;0.40;0.40;;;;;;;-1.44;87.86;99000.41;6243412;23;20207;-84
2020/12/03 05:43:45;;;;;;;0.40;0.40;;;;;;;-1.35;88.31;99009.94;6243229;23;20231;-84
2020/12/03 05:46:19;;;;;;;0.30;0.30;;;;;;;-1.39;88.01;99008.63;6241313;23;20183;-84
2020/12/03 05:49:09;;;;;;;0.40;0.40;;;;;;;-1.34;88.15;99020.31;6222486;23;20156;-83
2020/12/03 05:52:15;;;;;;;0.40;0.40;;;;;;;-1.40;88.41;99009.63;6221834;23;20167;-85
2020/12/03 05:55:10;;;;;;;0.40;0.40;;;;;;;-1.34;88.46;99015.06;6217254;23;20168;-83
2020/12/03 05:58:28;;;;;;;0.40;0.40;;;;;;;-1.34;88.49;99022.13;6223374;23;20160;-84
2020/12/03 06:01:21;;;;;;;0.40;0.40;;;;;;;-1.43;88.44;99017.81;6217832;23;20176;-84
2020/12/03 06:04:23;;;;;;;0.40;0.40;;;;;;;-1.36;88.52;99026.72;6220596;23;20142;-83
2020/12/03 06:07:38;;;;;;;0.40;0.40;;;;;;;-1.35;88.93;99023.91;6224265;23;20180;-84
2020/12/03 06:10:59;;;;;;;0.40;0.40;;;;;;;-1.43;88.28;99010.75;6194793;22;20174;-84
2020/12/03 06:13:51;;;;;;;0.40;0.40;;;;;;;-1.33;88.53;99031.66;6240901;22;20160;-84
2020/12/03 06:16:59;;;;;;;0.40;0.40;;;;;;;-1.36;88.64;99029.34;6332409;22;20166;-84
2020/12/03 06:20:21;;;;;;;0.50;0.50;;;;;;;-1.37;88.90;99032.97;6335285;22;20184;-84
2020/12/03 06:23:26;;;;;;;0.40;0.40;;;;;;;-1.30;88.82;99043.66;6326699;22;20212;-84
2020/12/03 06:26:47;;;;;;;0.47;0.47;;;;;;;-1.30;88.84;99039.22;6313725;22;20138;-83
2020/12/03 06:30:03;;;;;;;0.40;0.40;;;;;;;-1.29;89.02;99038.25;6331310;22;20185;-84
2020/12/03 06:33:01;;;;;;;0.40;0.40;;;;;;;-1.30;89.01;99041.84;6311180;22;20173;-85
2020/12/03 06:36:13;;;;;;;0.40;0.40;;;;;;;-1.29;88.98;99040.88;6314522;22;20173;-85
2020/12/03 06:39:17;;;;;;;0.40;0.40;;;;;;;-1.29;89.13;99038.25;6336405;22;20201;-84
2020/12/03 06:41:58;;;;;;;0.40;0.40;;;;;;;-1.28;89.08;99044.31;6273265;22;20155;-85
2020/12/03 06:45:03;;;;;;;0.40;0.40;;;;;;;-1.44;89.00;99027.50;6333443;22;20180;-83
2020/12/03 06:48:26;;;;;;;0.40;0.40;;;;;;;-1.30;88.96;99033.13;6335148;22;20173;-84
2020/12/03 06:51:39;;;;;;;0.40;0.40;;;;;;;-1.33;88.82;99039.53;6313031;22;20158;-84
2020/12/03 06:55:13;;;;;;;0.40;0.40;;;;;;;-1.30;89.12;99035.75;6336002;22;20154;-83
2020/12/03 06:58:30;;;;;;;0.30;0.30;;;;;;;-1.30;88.97;99043.66;6312562;22;20164;-85
2020/12/03 07:01:58;;;;;;;0.50;0.50;;;;;;;-1.46;89.40;99028.66;6309779;22;20146;-85
2020/12/03 07:05:25;;;;;;;0.40;0.40;;;;;;;-1.33;88.78;99037.75;6337288;22;20138;-84
2020/12/03 07:08:33;;;;;;;0.40;0.40;;;;;;;-1.27;89.10;99032.84;6288160;22;20175;-84
2020/12/03 07:11:41;;;;;;;0.37;0.37;;;;;;;-1.25;89.02;99038.75;6338203;22;20146;-84
2020/12/03 07:14:56;;;;;;;0.43;0.43;;;;;;;-1.24;88.78;99024.63;6311984;22;20157;-84
2020/12/03 07:18:28;;;;;;;0.40;0.40;;;;;;;-1.29;88.85;99019.84;6279545;22;20156;-82
2020/12/03 07:21:51;;;;;;;0.40;0.40;;;;;;;-1.29;88.99;99035.59;6283260;22;20198;-84
2020/12/03 07:24:41;;;;;;;0.40;0.40;;;;;;;-1.38;88.83;99029.50;6311428;22;20142;-84
2020/12/03 07:27:50;;;;;;;0.40;0.40;;;;;;;-1.26;89.08;99039.75;6287048;22;20186;-83
2020/12/03 07:31:01;;;;;;;0.40;0.40;;;;;;;-1.26;88.86;99026.59;6314626;22;20220;-83
2020/12/03 07:34:47;;;;;;;0.40;0.40;;;;;;;-1.23;88.94;99028.91;6311560;22;20176;-83
2020/12/03 07:37:38;;;;;;;0.40;0.40;;;;;;;-1.22;89.13;99036.63;6290287;22;20168;-83
2020/12/03 07:40:19;;;;;;;0.33;0.33;;;;;;;-1.36;89.00;99014.41;6337903;22;20160;-83
2020/12/03 07:43:08;;;;;;;0.40;0.40;;;;;;;-1.37;89.03;99007.50;6293210;22;20196;-83
2020/12/03 07:45:55;;;;;;;0.40;0.40;;;;;;;-1.33;88.93;99018.50;6287528;22;20180;-83
2020/12/03 07:48:45;;;;;;;0.40;0.40;;;;;;;-1.36;89.11;99011.78;6314125;22;20134;-82
2020/12/03 07:51:30;;;;;;;0.40;0.40;;;;;;;-1.28;89.04;99005.72;6287057;22;20189;-82
2020/12/03 07:54:22;;;;;;;0.40;0.40;;;;;;;-1.18;88.74;99026.63;6308984;22;20171;-82
2020/12/03 07:57:01;;;;;;;0.50;0.50;;;;;;;-1.29;88.96;99014.59;6313330;22;20184;-82
2020/12/03 07:59:44;;;;;;;0.47;0.47;;;;;;;-1.18;89.10;99014.31;6313602;22;20500;-82
2020/12/03 08:02:47;;;;;;;0.30;0.30;;;;;;;-1.12;88.69;99026.78;6313621;22;20181;-82
2020/12/03 08:05:57;;;;;;;0.40;0.40;;;;;;;-1.07;88.69;99024.50;6308154;22;20214;-83
2020/12/03 08:09:00;;;;;;;0.40;0.40;;;;;;;-1.06;88.89;99034.03;6314003;22;20153;-83
2020/12/03 08:12:11;;;;;;;0.37;0.37;;;;;;;-1.11;88.41;99023.19;6314691;22;20207;-83
2020/12/03 08:15:09;;;;;;;0.40;0.40;;;;;;;-1.01;88.52;99034.38;6288554;22;20217;-83
2020/12/03 08:18:10;;;;;;;0.40;0.40;;;;;;;-1.11;88.63;99015.28;6284018;22;20165;-82
2020/12/03 08:20:44;;;;;;;0.40;0.40;;;;;;;-1.04;88.49;99024.19;6337319;22;20170;-83
2020/12/03 08:23:27;;;;;;;0.40;0.40;;;;;;;-1.03;87.78;99030.28;6249706;22;20198;-82
2020/12/03 08:26:04;;;;;;;0.40;0.40;;;;;;;-0.94;87.75;99038.03;6270169;22;20156;-82
2020/12/03 08:29:01;;;;;;;0.40;0.40;;;;;;;-1.03;88.30;99028.47;6306464;22;20139;-82
2020/12/03 08:31:41;;;;;;;0.40;0.40;;;;;;;-0.88;87.77;99036.53;6277145;22;20197;-82
2020/12/03 08:34:16;;;;;;;0.40;0.40;;;;;;;-0.96;88.11;99020.75;6279385;22;20170;-82
2020/12/03 08:36:48;;;;;;;0.40;0.40;;;;;;;-0.98;87.95;99020.13;6278193;22;20171;-83
2020/12/03 08:39:25;;;;;;;0.40;0.40;;;;;;;-0.88;87.88;99034.75;6304048;22;20166;-82
2020/12/03 08:42:18;;;;;;;0.40;0.40;;;;;;;-0.80;87.59;99033.94;6233637;22;20155;-82
2020/12/03 08:45:05;;;;;;;0.40;0.40;;;;;;;-0.88;87.59;99026.84;6304362;22;20198;-82
2020/12/03 08:47:56;;;;;;;0.40;0.40;;;;;;;-0.79;87.69;99046.09;6296740;22;20171;-83
2020/12/03 08:50:34;;;;;;;0.40;0.40;;;;;;;-0.84;87.51;99021.28;6306126;22;20135;-82
2020/12/03 08:53:18;;;;;;;0.40;0.40;;;;;;;-0.90;87.34;99010.44;6278389;22;20193;-82
2020/12/03 08:56:20;;;;;;;0.40;0.40;;;;;;;-0.88;87.63;99018.97;6294924;22;20173;-82
2020/12/03 08:59:13;;;;;;;0.40;0.40;;;;;;;-0.73;87.66;99042.00;6306339;22;20134;-82
2020/12/03 09:02:11;;;;;;;0.50;0.50;;;;;;;-0.85;87.21;99015.19;6278598;22;20155;-81
2020/12/03 09:04:55;;;;;;;0.40;0.40;;;;;;;-0.68;87.57;99032.66;6281084;22;20142;-82
2020/12/03 09:07:25;;;;;;;0.20;0.20;;;;;;;-0.76;87.31;99023.94;6253814;22;20174;-82
2020/12/03 09:09:54;;;;;;;0.30;0.30;;;;;;;-0.67;87.70;99038.72;6226474;22;20170;-81
2020/12/03 09:12:30;;;;;;;0.40;0.40;;;;;;;-0.67;87.31;99018.50;6295096;22;20170;-82
2020/12/03 09:15:07;;;;;;;0.40;0.40;;;;;;;-0.72;87.69;99012.91;6252449;22;20161;-82
2020/12/03 09:17:44;;;;;;;0.40;0.40;;;;;;;-0.73;87.56;98997.28;6251387;22;20242;-81
2020/12/03 09:20:22;;;;;;;0.40;0.40;;;;;;;-0.61;87.51;99027.56;6232849;22;20142;-82
2020/12/03 09:22:56;;;;;;;0.40;0.40;;;;;;;-0.61;87.47;99015.25;6224351;22;20212;-81
2020/12/03 09:25:28;;;;;;;0.40;0.40;;;;;;;-0.61;87.43;99011.78;6330983;22;20146;-80
2020/12/03 09:27:57;;;;;;;0.40;0.40;;;;;;;-0.61;88.01;99020.50;6283379;22;20142;-82
2020/12/03 09:30:31;;;;;;;0.40;0.40;;;;;;;-0.60;87.94;99011.59;6305620;22;20184;-82
2020/12/03 09:33:09;;;;;;;0.40;0.40;;;;;;;-0.59;87.55;99000.09;6335654;22;20197;-82
2020/12/03 09:35:49;;;;;;;0.40;0.40;;;;;;;-0.50;87.87;99009.63;6334652;22;20169;-82
2020/12/03 09:38:48;;;;;;;0.40;0.40;;;;;;;-0.63;86.98;98990.88;6308308;22;20165;-82
2020/12/03 09:41:24;;;;;;;0.40;0.40;;;;;;;-0.58;86.92;98993.84;6283395;22;20173;-83
2020/12/03 09:43:59;;;;;;;0.30;0.30;;;;;;;-0.49;86.98;99010.47;6281725;22;20209;-83
2020/12/03 09:46:44;;;;;;;0.40;0.40;;;;;;;-0.64;86.46;98980.50;6314256;22;20134;-84
2020/12/03 09:49:35;;;;;;;0.40;0.40;;;;;;;-0.58;86.57;98978.06;6264636;22;20180;-83
2020/12/03 09:52:28;;;;;;;0.40;0.40;;;;;;;-0.57;87.08;98971.00;6227307;22;20591;-85
2020/12/03 09:55:15;;;;;;;0.40;0.40;;;;;;;-0.57;87.18;98963.09;6310466;22;20166;-83
2020/12/03 09:58:22;;;;;;;0.40;0.40;;;;;;;-0.45;86.70;98969.66;6311661;22;20164;-83
2020/12/03 10:01:24;;;;;;;0.40;0.40;;;;;;;-0.55;86.60;98942.69;6335381;22;20165;-82
2020/12/03 10:04:27;;;;;;;0.50;0.50;;;;;;;-0.41;86.68;98970.97;6309680;22;20146;-83
2020/12/03 10:07:48;;;;;;;0.40;0.40;;;;;;;-0.41;86.92;98970.16;6311257;22;20150;-82
2020/12/03 10:10:55;;;;;;;0.50;0.50;;;;;;;-0.45;87.49;98965.22;6300806;22;20166;-82
2020/12/03 10:14:01;;;;;;;0.40;0.40;;;;;;;-0.57;87.33;98944.69;6260143;22;20191;-82
2020/12/03 10:16:41;;;;;;;0.40;0.40;;;;;;;-0.44;87.66;98950.25;6335126;22;20168;-82
2020/12/03 10:19:19;;;;;;;0.40;0.40;;;;;;;-0.53;87.07;98944.19;6307273;22;20162;-82
2020/12/03 10:21:59;;;;;;;0.40;0.40;;;;;;;-0.43;87.93;98940.56;6306308;22;20185;-83
2020/12/03 10:24:58;;;;;;;0.43;0.43;;;;;;;-0.41;87.82;98933.28;6313383;22;20200;-83
2020/12/03 10:28:26;;;;;;;0.40;0.40;;;;;;;-0.54;87.55;98907.50;6334463;22;20173;-83
2020/12/03 10:31:04;;;;;;;0.40;0.40;;;;;;;-0.47;87.46;98905.88;6283070;22;20218;-81
2020/12/03 10:34:00;;;;;;;0.40;0.40;;;;;;;-0.43;87.19;98906.34;6249950;22;20166;-82
2020/12/03 10:37:11;;;;;;;0.30;0.30;;;;;;;-0.41;87.21;98909.63;6336340;22;20146;-82
2020/12/03 10:40:21;;;;;;;0.30;0.30;;;;;;;-0.43;87.22;98903.72;6301941;22;20166;-83
2020/12/03 10:43:26;;;;;;;0.30;0.30;;;;;;;-0.41;87.16;98902.53;6273005;22;20176;-82
2020/12/03 10:46:22;;;;;;;0.40;0.40;;;;;;;-0.33;87.11;98922.78;6264549;22;20168;-82
2020/12/03 10:49:15;;;;;;;0.40;0.40;;;;;;;-0.34;87.14;98907.97;6304628;22;20157;-82
2020/12/03 10:52:02;;;;;;;0.40;0.40;;;;;;;-0.52;87.48;98895.84;6302411;22;20189;-83
2020/12/03 10:54:40;;;;;;;0.40;0.40;;;;;;;-0.52;87.31;98890.56;6287674;22;20158;-81
2020/12/03 10:57:55;;;;;;;0.40;0.40;;;;;;;-0.36;87.54;98908.13;6299638;22;20184;-82
2020/12/03 11:01:27;;;;;;;0.40;0.40;;;;;;;-0.40;87.40;98911.25;6313515;22;20197;-82
2020/12/03 11:04:35;;;;;;;0.40;0.40;;;;;;;-0.35;87.49;98901.88;6319582;22;20225;-83
2020/12/03 11:07:24;;;;;;;0.40;0.40;;;;;;;-0.42;87.78;98894.84;6307828;22;20159;-82
2020/12/03 11:09:57;;;;;;;0.40;0.40;;;;;;;-0.50;88.06;98893.84;6286290;22;20188;-83
2020/12/03 11:12:38;;;;;;;0.30;0.30;;;;;;;-0.44;87.83;98887.09;6301338;22;20208;-83
2020/12/03 11:15:12;;;;;;;0.40;0.40;;;;;;;-0.38;87.43;98902.22;6232798;22;20170;-82
2020/12/03 11:18:05;;;;;;;0.30;0.30;;;;;;;-0.39;86.99;98902.38;6338145;22;20169;-81
2020/12/03 11:21:08;;;;;;;0.30;0.30;;;;;;;-0.56;87.62;98862.94;6308301;22;20154;-82
2020/12/03 11:24:05;;;;;;;0.37;0.37;;;;;;;-0.45;87.68;98865.22;6333527;22;20245;-83
2020/12/03 11:26:51;;;;;;;0.30;0.30;;;;;;;-0.49;88.26;98857.84;6314649;22;20130;-84
2020/12/03 11:29:59;;;;;;;0.40;0.40;;;;;;;-0.34;87.54;98869.31;6336599;22;20152;-82
2020/12/03 11:32:57;;;;;;;0.40;0.40;;;;;;;-0.46;87.81;98854.84;6337039;22;20251;-82
2020/12/03 11:35:40;;;;;;;0.40;0.40;;;;;;;-0.42;87.96;98871.16;6288952;22;20162;-82
2020/12/03 11:38:19;;;;;;;0.43;0.43;;;;;;;-0.40;87.57;98869.16;6310780;22;20162;-82
2020/12/03 11:41:17;;;;;;;0.40;0.40;;;;;;;-0.31;87.60;98865.50;6333255;22;20196;-82
2020/12/03 11:44:12;;;;;;;0.40;0.40;;;;;;;-0.42;87.68;98839.56;6333533;22;20218;-83
2020/12/03 11:50:20;;;;;;;0.40;0.40;;;;;;;-0.31;87.73;98845.28;6336374;22;20165;-82
2020/12/03 11:53:07;;;;;;;0.40;0.40;;;;;;;-0.43;87.63;98833.47;6289246;22;20189;-82
2020/12/03 11:55:45;;;;;;;0.40;0.40;;;;;;;-0.28;87.58;98839.66;6337943;22;20166;-83
2020/12/03 11:59:10;;;;;;;0.40;0.40;;;;;;;-0.39;87.81;98833.97;6297188;22;20189;-80
2020/12/03 12:01:38;;;;;;;0.30;0.30;;;;;;;-0.39;87.45;98821.63;6253394;22;20168;-81
2020/12/03 12:04:12;;;;;;;0.47;0.47;;;;;;;-0.29;87.96;98831.97;6303111;22;20169;-81
2020/12/03 12:07:09;;;;;;;0.40;0.40;;;;;;;-0.27;87.64;98829.97;6278857;22;20173;-81
2020/12/03 12:09:57;;;;;;;0.30;0.30;;;;;;;-0.34;87.59;98810.59;6310642;22;20154;-81
2020/12/03 12:12:33;;;;;;;0.30;0.30;;;;;;;-0.27;87.73;98824.69;6256154;22;20173;-81
2020/12/03 12:15:04;;;;;;;0.40;0.40;;;;;;;-0.17;87.35;98826.13;6276985;22;20198;-81
2020/12/03 12:17:39;;;;;;;0.30;0.30;;;;;;;-0.19;87.58;98807.06;6303070;22;20208;-81
2020/12/03 12:20:09;;;;;;;0.37;0.37;;;;;;;-0.33;86.39;98784.09;6277062;22;20185;-81
2020/12/03 12:22:36;;;;;;;0.30;0.30;;;;;;;-0.30;87.05;98781.13;6276721;22;20171;-80
2020/12/03 12:25:06;;;;;;;0.40;0.40;;;;;;;-0.28;87.06;98773.06;6272498;22;20206;-81
2020/12/03 12:27:40;;;;;;;0.40;0.40;;;;;;;-0.25;87.36;98765.63;6278696;22;20158;-81
2020/12/03 12:30:09;;;;;;;0.40;0.40;;;;;;;-0.15;86.82;98768.06;6300980;22;20267;-81
2020/12/03 12:32:39;;;;;;;0.37;0.37;;;;;;;-0.13;86.77;98772.16;6278566;22;20177;-80
2020/12/03 12:35:06;;;;;;;0.30;0.30;;;;;;;-0.15;86.94;98760.16;6329490;22;20170;-81
2020/12/03 12:37:35;;;;;;;0.40;0.40;;;;;;;-0.07;86.76;98760.94;6252961;22;20170;-81
2020/12/03 12:40:03;;;;;;;0.40;0.40;;;;;;;-0.13;87.04;98745.00;6303119;22;20234;-80
2020/12/03 12:42:32;;;;;;;0.40;0.40;;;;;;;-0.06;86.94;98753.84;6276917;22;20166;-81
2020/12/03 12:44:59;;;;;;;0.40;0.40;;;;;;;-0.13;86.74;98751.06;6250583;22;20594;-81
2020/12/03 12:47:29;;;;;;;0.40;0.40;;;;;;;-0.11;86.72;98756.19;6275680;22;20174;-81
2020/12/03 12:49:58;;;;;;;0.40;0.40;;;;;;;-0.07;86.54;98755.66;6327436;22;20166;-81
2020/12/03 12:52:25;;;;;;;0.40;0.40;;;;;;;-0.13;86.58;98745.00;6251167;22;20194;-81
2020/12/03 12:54:54;;;;;;;0.40;0.40;;;;;;;-0.13;87.15;98745.00;6274420;22;20196;-81
2020/12/03 12:57:22;;;;;;;0.40;0.40;;;;;;;-0.18;86.79;98726.25;6302485;22;20165;-81
2020/12/03 12:59:51;;;;;;;0.30;0.30;;;;;;;-0.23;87.11;98723.31;6302730;22;20180;-81
2020/12/03 13:02:18;;;;;;;0.40;0.40;;;;;;;-0.21;87.47;98721.34;6276484;22;20575;-81
2020/12/03 13:04:46;;;;;;;0.40;0.40;;;;;;;-0.08;87.54;98730.31;6253329;22;20202;-81
2020/12/03 13:07:15;;;;;;;0.30;0.30;;;;;;;-0.16;86.83;98737.44;6276948;22;20176;-81
2020/12/03 13:09:45;;;;;;;0.40;0.40;;;;;;;-0.15;86.75;98747.00;6277596;22;20242;-81
2020/12/03 13:12:17;;;;;;;0.40;0.40;;;;;;;-0.13;86.95;98758.16;6279155;22;20233;-80
2020/12/03 13:14:45;;;;;;;0.40;0.40;;;;;;;-0.12;87.19;98741.38;6276460;22;20527;-81
2020/12/03 13:17:13;;;;;;;0.50;0.50;;;;;;;-0.17;87.00;98726.09;6276820;22;20172;-81
2020/12/03 13:19:40;;;;;;;0.40;0.40;;;;;;;-0.18;87.67;98721.81;6276458;22;20174;-79
2020/12/03 13:22:10;;;;;;;0.30;0.30;;;;;;;-0.20;87.66;98705.41;6276827;22;20174;-81
2020/12/03 13:24:38;;;;;;;0.40;0.40;;;;;;;-0.15;87.29;98715.41;6275386;22;20224;-81
2020/12/03 13:27:05;;;;;;;0.40;0.40;;;;;;;-0.13;87.61;98706.31;6276535;22;20177;-80
2020/12/03 13:29:36;;;;;;;0.40;0.40;;;;;;;-0.09;87.62;98714.69;6276327;22;20174;-81
2020/12/03 13:32:05;;;;;;;0.40;0.40;;;;;;;-0.07;87.87;98710.91;6276329;22;20197;-79
2020/12/03 13:34:35;;;;;;;0.30;0.30;;;;;;;-0.05;87.90;98711.53;6251408;22;20190;-81
2020/12/03 13:37:04;;;;;;;0.30;0.30;;;;;;;-0.04;87.93;98707.91;6276797;22;20174;-80
2020/12/03 13:39:35;;;;;;;0.30;0.30;;;;;;;-0.07;87.38;98692.47;6277572;22;20170;-81
2020/12/03 13:42:05;;;;;;;0.40;0.40;;;;;;;-0.04;88.08;98691.28;6302418;22;20158;-80
2020/12/03 13:44:32;;;;;;;0.40;0.40;;;;;;;-0.13;87.54;98695.78;6274273;22;20173;-81
2020/12/03 13:47:06;;;;;;;0.30;0.30;;;;;;;-0.12;87.87;98686.09;6302597;22;20142;-81
2020/12/03 13:49:34;;;;;;;0.40;0.40;;;;;;;-0.18;87.49;98684.13;6300272;22;20150;-81
2020/12/03 13:52:04;;;;;;;0.40;0.40;;;;;;;-0.14;87.19;98699.41;6276181;22;20181;-81
2020/12/03 13:54:33;;;;;;;0.40;0.40;;;;;;;-0.19;87.34;98706.22;6249518;22;20173;-81
2020/12/03 13:57:01;;;;;;;0.40;0.40;;;;;;;-0.08;87.73;98721.59;6276062;22;20162;-81
2020/12/03 13:59:30;;;;;;;0.40;0.40;;;;;;;-0.14;87.88;98711.78;6248918;22;20177;-80
2020/12/03 14:01:58;;;;;;;0.40;0.40;;;;;;;-0.19;87.43;98693.06;6292969;22;20170;-81
2020/12/03 14:04:31;;;;;;;0.40;0.40;;;;;;;-0.13;87.96;98701.06;6276912;22;20158;-81
2020/12/03 14:07:05;;;;;;;0.40;0.40;;;;;;;-0.19;87.61;98695.69;6305102;22;20158;-81
2020/12/03 14:09:38;;;;;;;0.30;0.30;;;;;;;-0.12;88.08;98709.78;6278636;22;20177;-81
2020/12/03 14:12:10;;;;;;;0.40;0.40;;;;;;;-0.16;87.95;98704.03;6254910;22;20197;-81
2020/12/03 14:14:47;;;;;;;0.30;0.30;;;;;;;-0.26;87.95;98689.47;6330937;22;20224;-81
2020/12/03 14:17:33;;;;;;;0.40;0.40;;;;;;;-0.14;87.61;98714.41;6282734;22;20183;-81
2020/12/03 14:20:06;;;;;;;0.40;0.40;;;;;;;-0.14;87.83;98728.38;6281378;22;20180;-81
2020/12/03 14:22:49;;;;;;;0.40;0.40;;;;;;;-0.15;88.13;98724.13;6287456;22;20146;-81
2020/12/03 14:25:34;;;;;;;0.40;0.40;;;;;;;-0.31;87.81;98705.78;6331744;22;20165;-81
2020/12/03 14:28:09;;;;;;;0.40;0.40;;;;;;;-0.23;87.79;98718.88;6284672;22;20141;-81
2020/12/03 14:30:41;;;;;;;0.40;0.40;;;;;;;-0.17;88.34;98735.81;6279551;22;20587;-81
2020/12/03 14:33:17;;;;;;;0.40;0.40;;;;;;;-0.20;87.88;98715.91;6308870;22;20190;-81
2020/12/03 14:35:55;;;;;;;0.40;0.40;;;;;;;-0.27;88.09;98707.06;6306967;22;20212;-81
2020/12/03 14:38:29;;;;;;;0.40;0.40;;;;;;;-0.33;88.05;98689.34;6282576;22;20187;-81
2020/12/03 14:41:06;;;;;;;0.40;0.40;;;;;;;-0.25;88.61;98681.41;6284539;22;20185;-81
2020/12/03 14:43:37;;;;;;;0.33;0.33;;;;;;;-0.21;88.55;98690.59;6316750;22;20174;-81
2020/12/03 14:46:16;;;;;;;0.40;0.40;;;;;;;-0.21;88.81;98689.75;6282628;22;20176;-81
2020/12/03 14:48:49;;;;;;;0.40;0.40;;;;;;;-0.19;88.43;98690.41;6306745;22;20217;-81
2020/12/03 14:51:28;;;;;;;0.40;0.40;;;;;;;-0.32;88.50;98663.81;6308044;22;20174;-81
2020/12/03 14:53:57;;;;;;;0.40;0.40;;;;;;;-0.19;88.80;98679.88;6281499;22;20166;-81
2020/12/03 14:56:33;;;;;;;0.40;0.40;;;;;;;-0.27;88.50;98667.56;6331093;22;20165;-81
2020/12/03 14:59:07;;;;;;;0.40;0.40;;;;;;;-0.21;88.88;98676.59;6281021;22;20184;-81
2020/12/03 15:01:35;;;;;;;0.40;0.40;;;;;;;-0.25;88.62;98677.94;6276793;22;20192;-81
2020/12/03 15:04:09;;;;;;;0.40;0.40;;;;;;;-0.22;88.81;98677.59;6279324;22;20174;-81
2020/12/03 15:06:39;;;;;;;0.40;0.40;;;;;;;-0.35;88.45;98666.81;6306399;22;20158;-81
2020/12/03 15:09:15;;;;;;;0.30;0.30;;;;;;;-0.25;88.54;98675.31;6284001;22;20150;-81
2020/12/03 15:11:55;;;;;;;0.30;0.30;;;;;;;-0.29;88.63;98664.31;6284214;22;20146;-81
2020/12/03 15:14:30;;;;;;;0.40;0.40;;;;;;;-0.32;88.69;98662.00;6306056;22;20182;-80
2020/12/03 15:16:59;;;;;;;0.40;0.40;;;;;;;-0.24;88.25;98661.16;6300317;22;20170;-81
2020/12/03 15:19:31;;;;;;;0.30;0.30;;;;;;;-0.34;88.79;98656.13;6306486;22;20180;-81
2020/12/03 15:22:03;;;;;;;0.40;0.40;;;;;;;-0.32;88.39;98655.94;6280520;22;20165;-81
2020/12/03 15:24:35;;;;;;;0.40;0.40;;;;;;;-0.34;88.59;98661.38;6299122;22;20203;-81
2020/12/03 15:27:06;;;;;;;0.40;0.40;;;;;;;-0.27;88.42;98659.69;6280882;22;20226;-80
2020/12/03 15:29:36;;;;;;;0.40;0.40;;;;;;;-0.32;88.61;98640.13;6279753;22;20201;-81
2020/12/03 15:32:07;;;;;;;0.40;0.40;;;;;;;-0.39;88.20;98623.41;6307140;22;20188;-81
2020/12/03 15:34:37;;;;;;;0.40;0.40;;;;;;;-0.24;88.04;98632.22;6280566;22;20154;-81
2020/12/03 15:37:09;;;;;;;0.40;0.40;;;;;;;-0.37;87.77;98610.91;6332128;22;20154;-81
2020/12/03 15:39:43;;;;;;;0.40;0.40;;;;;;;-0.36;88.14;98621.25;6306141;22;20200;-81
2020/12/03 15:42:15;;;;;;;0.30;0.30;;;;;;;-0.26;87.40;98632.38;6255919;22;20166;-81
2020/12/03 15:44:45;;;;;;;0.40;0.40;;;;;;;-0.25;87.98;98630.56;6278404;22;20180;-81
2020/12/03 15:47:17;;;;;;;0.40;0.40;;;;;;;-0.40;87.25;98604.16;6253017;22;20173;-81
2020/12/03 15:49:46;;;;;;;0.40;0.40;;;;;;;-0.31;87.61;98616.28;6303429;22;20570;-81
2020/12/03 15:52:15;;;;;;;0.40;0.40;;;;;;;-0.32;87.50;98603.28;6279432;22;20197;-81
2020/12/03 15:54:55;;;;;;;0.40;0.40;;;;;;;-0.41;86.95;98602.53;6307773;22;20154;-81
2020/12/03 15:57:26;;;;;;;0.40;0.40;;;;;;;-0.31;87.20;98613.66;6305647;22;20154;-80
2020/12/03 16:00:03;;;;;;;0.40;0.40;;;;;;;-0.45;87.34;98586.28;6303315;22;20165;-81
2020/12/03 16:02:33;;;;;;;0.40;0.40;;;;;;;-0.28;87.22;98621.19;6254267;22;20418;-81
2020/12/03 16:05:02;;;;;;;0.50;0.50;;;;;;;-0.41;87.06;98613.06;6278444;22;20189;-81
2020/12/03 16:07:35;;;;;;;0.40;0.40;;;;;;;-0.31;87.52;98632.06;6252700;22;20170;-81
2020/12/03 16:10:02;;;;;;;0.30;0.30;;;;;;;-0.40;87.94;98612.06;6253713;22;20202;-80
2020/12/03 16:12:30;;;;;;;0.40;0.40;;;;;;;-0.36;87.80;98620.41;6253001;22;20185;-81
2020/12/03 16:14:59;;;;;;;0.40;0.40;;;;;;;-0.37;87.85;98618.81;6277415;22;20192;-80
2020/12/03 16:17:29;;;;;;;0.40;0.40;;;;;;;-0.34;88.02;98621.09;6254478;22;20181;-81
2020/12/03 16:20:04;;;;;;;0.40;0.40;;;;;;;-0.42;87.48;98613.25;6303294;22;20154;-81
2020/12/03 16:22:34;;;;;;;0.40;0.40;;;;;;;-0.41;88.21;98615.69;6279291;22;20253;-81
2020/12/03 16:25:04;;;;;;;0.40;0.40;;;;;;;-0.38;88.25;98614.53;6303198;22;20203;-81
2020/12/03 16:27:34;;;;;;;0.30;0.30;;;;;;;-0.40;87.81;98613.88;6278285;22;20162;-81
2020/12/03 16:30:07;;;;;;;0.40;0.40;;;;;;;-0.34;88.02;98628.97;6278012;22;20162;-81
2020/12/03 16:32:38;;;;;;;0.40;0.40;;;;;;;-0.38;87.90;98625.88;6279443;22;20190;-81
2020/12/03 16:35:09;;;;;;;0.40;0.40;;;;;;;-0.40;87.78;98619.97;6278379;22;20174;-80
2020/12/03 16:37:39;;;;;;;0.40;0.40;;;;;;;-0.45;88.65;98606.50;6277780;22;20174;-81
2020/12/03 16:40:13;;;;;;;0.40;0.40;;;;;;;-0.44;88.46;98605.53;6280196;22;20224;-81
2020/12/03 16:42:42;;;;;;;0.40;0.40;;;;;;;-0.36;88.60;98623.88;6303654;22;20150;-81
2020/12/03 16:45:21;;;;;;;0.37;0.37;;;;;;;-0.40;88.33;98614.69;6302687;22;20173;-81
2020/12/03 16:47:49;;;;;;;0.40;0.40;;;;;;;-0.37;88.14;98613.53;6302479;22;20225;-81
2020/12/03 16:50:19;;;;;;;0.40;0.40;;;;;;;-0.36;87.88;98615.97;6276955;22;20174;-80
2020/12/03 16:52:47;;;;;;;0.40;0.40;;;;;;;-0.37;87.92;98613.53;6276571;22;20194;-81
2020/12/03 16:55:19;;;;;;;0.40;0.40;;;;;;;-0.38;88.03;98612.72;6277021;22;20249;-80
2020/12/03 16:57:49;;;;;;;0.40;0.40;;;;;;;-0.37;88.07;98614.34;6276511;22;20174;-81
2020/12/03 17:00:19;;;;;;;0.40;0.40;;;;;;;-0.37;88.02;98614.34;6274871;22;20176;-81
2020/12/03 17:02:48;;;;;;;0.40;0.40;;;;;;;-0.37;88.60;98614.34;6301401;22;20221;-81
2020/12/03 17:05:15;;;;;;;0.30;0.30;;;;;;;-0.36;87.90;98615.16;6274970;22;20213;-81
2020/12/03 17:07:42;;;;;;;0.40;0.40;;;;;;;-0.42;88.24;98607.97;6250343;22;20190;-80
2020/12/03 17:10:10;;;;;;;0.40;0.40;;;;;;;-0.43;88.24;98598.44;6275992;22;20196;-81
2020/12/03 17:12:38;;;;;;;0.40;0.40;;;;;;;-0.50;88.24;98585.97;6249683;22;20194;-80
2020/12/03 17:15:05;;;;;;;0.40;0.40;;;;;;;-0.37;87.69;98606.44;6273371;22;20170;-80
2020/12/03 17:17:34;;;;;;;0.40;0.40;;;;;;;-0.37;88.29;98610.91;6299594;22;20241;-80
2020/12/03 17:20:02;;;;;;;0.40;0.40;;;;;;;-0.47;87.91;98593.50;6274882;22;20170;-80
2020/12/03 17:22:29;;;;;;;0.40;0.40;;;;;;;-0.46;87.82;98605.69;6249239;22;20173;-80
2020/12/03 17:24:56;;;;;;;0.40;0.40;;;;;;;-0.42;87.94;98606.16;6298550;22;20201;-81
2020/12/03 17:27:24;;;;;;;0.40;0.40;;;;;;;-0.43;87.94;98607.16;6274412;22;20169;-81
2020/12/03 17:29:52;;;;;;;0.40;0.40;;;;;;;-0.39;88.14;98608.44;6273551;22;20205;-81
2020/12/03 17:32:19;;;;;;;0.40;0.40;;;;;;;-0.37;88.17;98608.28;6248306;22;20186;-80
2020/12/03 17:34:47;;;;;;;0.40;0.40;;;;;;;-0.49;88.06;98585.00;6275126;22;20177;-80
2020/12/03 17:37:16;;;;;;;0.40;0.40;;;;;;;-0.38;87.97;98604.00;6300503;22;20162;-80
2020/12/03 17:39:44;;;;;;;0.40;0.40;;;;;;;-0.50;88.08;98583.34;6299785;22;20162;-82
2020/12/03 17:42:11;;;;;;;0.40;0.40;;;;;;;-0.37;87.96;98600.38;6298016;22;20168;-81
2020/12/03 17:44:40;;;;;;;0.40;0.40;;;;;;;-0.45;87.76;98578.38;6275011;22;20195;-80
2020/12/03 17:47:06;;;;;;;0.40;0.40;;;;;;;-0.36;88.19;98589.66;6273400;22;20174;-80
2020/12/03 17:49:39;;;;;;;0.40;0.40;;;;;;;-0.45;88.17;98569.66;6298215;22;20174;-81
2020/12/03 17:52:06;;;;;;;0.30;0.30;;;;;;;-0.50;88.37;98572.81;6274392;22;20186;-81
2020/12/03 17:54:33;;;;;;;0.40;0.40;;;;;;;-0.47;87.83;98566.41;6248915;22;20526;-80
2020/12/03 17:57:06;;;;;;;0.40;0.40;;;;;;;-0.49;88.30;98557.84;6326451;22;20162;-80
2020/12/03 17:59:40;;;;;;;0.40;0.40;;;;;;;-0.53;88.45;98559.19;6300611;22;20154;-81
2020/12/03 18:02:23;;;;;;;0.40;0.40;;;;;;;-0.40;88.41;98575.22;6303022;22;20158;-81
2020/12/03 18:05:00;;;;;;;0.40;0.40;;;;;;;-0.42;88.19;98571.94;6301659;22;20180;-80
2020/12/03 18:07:42;;;;;;;0.30;0.30;;;;;;;-0.51;88.39;98550.13;6326614;22;20176;-80
2020/12/03 18:10:17;;;;;;;0.30;0.30;;;;;;;-0.39;88.71;98576.03;6300066;22;20173;-80